createdAt,value
2022-10-13T00:01:24.606Z,87.83
2022-10-13T00:03:52.545Z,87.97
2022-10-13T00:06:24.327Z,87.91
2022-10-13T00:08:52.479Z,87.54
2022-10-13T00:11:26.793Z,87.97
2022-10-13T00:14:00.132Z,88.13
2022-10-13T00:16:29.504Z,87.88
2022-10-13T00:18:58.671Z,88.23
2022-10-13T00:21:28.178Z,88.14
2022-10-13T00:24:03.197Z,88.23
2022-10-13T00:26:31.117Z,88.19
2022-10-13T00:28:59.176Z,87.78
2022-10-13T00:31:32.241Z,88.16
2022-10-13T00:34:01.703Z,88.23
2022-10-13T00:36:30.611Z,87.80
2022-10-13T00:38:59.975Z,87.83
2022-10-13T00:41:28.106Z,88.13
2022-10-13T00:44:04.358Z,87.92
2022-10-13T00:46:34.783Z,88.06
2022-10-13T00:49:10.468Z,88.17
2022-10-13T00:51:45.781Z,88.08
2022-10-13T00:54:24.779Z,88.05
2022-10-13T00:56:55.650Z,88.19
2022-10-13T00:59:29.686Z,88.20
2022-10-13T01:02:00.425Z,87.84
2022-10-13T01:04:41.292Z,88.00
2022-10-13T01:07:10.125Z,88.04
2022-10-13T01:09:38.627Z,87.83
2022-10-13T01:12:54.868Z,88.02
2022-10-13T01:15:33.603Z,88.13
2022-10-13T01:18:14.276Z,87.77
2022-10-13T01:20:57.549Z,88.28
2022-10-13T01:23:35.268Z,88.01
2022-10-13T01:26:03.138Z,88.20
2022-10-13T01:29:01.315Z,87.93
2022-10-13T01:31:40.579Z,87.96
2022-10-13T01:34:16.296Z,88.12
2022-10-13T01:37:10.828Z,87.97
2022-10-13T01:40:00.198Z,88.07
2022-10-13T01:42:39.789Z,88.36
2022-10-13T01:45:14.205Z,87.71
2022-10-13T01:47:44.094Z,88.12
2022-10-13T01:50:12.918Z,88.29
2022-10-13T01:52:44.415Z,87.87
2022-10-13T01:55:14.081Z,88.25
2022-10-13T01:57:44.850Z,87.95
2022-10-13T02:00:18.482Z,87.92
2022-10-13T02:02:52.554Z,88.18
2022-10-13T02:05:26.799Z,88.27
2022-10-13T02:11:02.646Z,88.17
2022-10-13T02:13:33.861Z,88.03
2022-10-13T02:16:02.632Z,87.87
2022-10-13T02:18:34.384Z,87.63
2022-10-13T02:21:04.382Z,88.15
2022-10-13T02:23:32.646Z,88.30
2022-10-13T02:26:05.303Z,88.41
2022-10-13T02:28:33.457Z,88.50
2022-10-13T02:31:01.414Z,88.42
2022-10-13T02:33:30.545Z,87.95
2022-10-13T02:35:58.586Z,88.02
2022-10-13T02:38:26.561Z,87.88
2022-10-13T02:40:55.957Z,87.75
2022-10-13T02:43:23.907Z,87.60
2022-10-13T02:45:52.059Z,87.71
2022-10-13T02:48:20.196Z,87.64
2022-10-13T02:50:48.416Z,87.25
2022-10-13T02:53:16.426Z,87.72
2022-10-13T02:55:46.148Z,87.43
2022-10-13T02:58:13.860Z,87.38
2022-10-13T03:00:42.755Z,87.93
2022-10-13T03:03:14.193Z,87.17
2022-10-13T03:05:42.171Z,87.32
2022-10-13T03:08:10.190Z,87.10
2022-10-13T03:10:38.629Z,87.06
2022-10-13T03:13:06.592Z,87.64
2022-10-13T03:15:34.544Z,86.95
2022-10-13T03:18:03.556Z,86.69
2022-10-13T03:20:31.650Z,86.56
2022-10-13T03:22:59.560Z,86.38
2022-10-13T03:25:28.661Z,86.55
2022-10-13T03:27:57.198Z,86.38
2022-10-13T03:30:25.516Z,86.36
2022-10-13T03:32:54.093Z,86.15
2022-10-13T03:35:22.182Z,86.25
2022-10-13T03:38:05.391Z,86.10
2022-10-13T03:40:35.122Z,85.70
2022-10-13T03:43:02.788Z,85.61
2022-10-13T03:45:31.913Z,85.31
2022-10-13T03:48:01.295Z,85.63
2022-10-13T03:50:29.275Z,85.18
2022-10-13T03:52:57.217Z,85.55
2022-10-13T03:55:27.189Z,85.07
2022-10-13T03:57:55.190Z,84.73
2022-10-13T04:00:24.129Z,85.13
2022-10-13T04:02:53.912Z,84.67
2022-10-13T04:05:21.850Z,84.49
2022-10-13T04:07:49.775Z,84.28
2022-10-13T04:10:18.155Z,84.28
2022-10-13T04:12:46.104Z,84.25
2022-10-13T04:15:14.105Z,84.46
2022-10-13T04:17:43.185Z,84.40
2022-10-13T04:20:11.796Z,84.41
2022-10-13T04:22:40.103Z,84.33
2022-10-13T04:25:09.643Z,84.13
2022-10-13T04:27:39.952Z,83.78
2022-10-13T04:30:09.474Z,83.68
2022-10-13T04:32:41.094Z,83.74
2022-10-13T04:35:09.227Z,83.33
2022-10-13T04:37:40.495Z,83.08
2022-10-13T04:40:11.503Z,83.13
2022-10-13T04:42:39.570Z,83.09
2022-10-13T04:45:08.247Z,82.70
2022-10-13T04:47:54.941Z,82.46
2022-10-13T04:50:23.417Z,82.21
2022-10-13T04:52:51.431Z,82.40
2022-10-13T04:55:20.410Z,82.22
2022-10-13T04:57:49.600Z,81.98
2022-10-13T05:00:17.978Z,82.25
2022-10-13T05:02:46.250Z,82.03
2022-10-13T05:05:15.347Z,81.65
2022-10-13T05:07:43.394Z,81.81
2022-10-13T05:10:11.487Z,81.29
2022-10-13T05:12:39.467Z,81.55
2022-10-13T05:15:07.985Z,81.44
2022-10-13T05:17:36.081Z,80.94
2022-10-13T05:20:04.967Z,80.46
2022-10-13T05:22:33.059Z,80.74
2022-10-13T05:25:02.266Z,80.92
2022-10-13T05:27:31.344Z,80.19
2022-10-13T05:29:59.362Z,80.33
2022-10-13T05:32:28.322Z,80.01
2022-10-13T05:34:56.316Z,79.90
2022-10-13T05:37:24.327Z,79.50
2022-10-13T05:39:53.151Z,79.54
2022-10-13T05:42:21.321Z,79.00
2022-10-13T05:44:49.601Z,78.25
2022-10-13T05:47:17.774Z,78.36
2022-10-13T05:49:45.834Z,77.76
2022-10-13T05:52:14.065Z,77.27
2022-10-13T05:54:49.332Z,76.88
2022-10-13T05:57:23.438Z,77.00
2022-10-13T06:00:14.529Z,76.35
2022-10-13T06:03:08.132Z,76.19
2022-10-13T06:05:37.595Z,75.63
2022-10-13T06:08:05.828Z,75.18
2022-10-13T06:10:33.845Z,75.35
2022-10-13T06:13:01.910Z,74.88
2022-10-13T06:15:29.925Z,73.91
2022-10-13T06:17:58.029Z,73.40
2022-10-13T06:20:30.131Z,73.23
2022-10-13T06:22:58.340Z,73.67
2022-10-13T06:25:26.455Z,72.94
2022-10-13T06:27:54.556Z,72.67
2022-10-13T06:30:22.621Z,72.46
2022-10-13T06:32:50.569Z,72.50
2022-10-13T06:35:20.988Z,72.18
2022-10-13T06:37:49.348Z,72.36
2022-10-13T06:40:18.019Z,72.09
2022-10-13T06:42:51.734Z,72.28
2022-10-13T06:45:22.461Z,72.23
2022-10-13T06:47:50.481Z,71.82
2022-10-13T06:50:20.341Z,72.25
2022-10-13T06:52:47.982Z,72.37
2022-10-13T06:55:16.121Z,72.26
2022-10-13T06:57:44.699Z,71.21
2022-10-13T07:00:13.078Z,71.33
2022-10-13T07:02:40.988Z,71.46
2022-10-13T07:05:10.274Z,70.80
2022-10-13T07:07:38.505Z,70.70
2022-10-13T07:10:06.848Z,71.08
2022-10-13T07:12:36.191Z,71.38
2022-10-13T07:15:04.430Z,70.66
2022-10-13T07:17:32.448Z,70.56
2022-10-13T07:20:05.036Z,71.03
2022-10-13T07:22:35.396Z,70.58
2022-10-13T07:25:06.007Z,70.37
2022-10-13T07:27:34.130Z,70.62
2022-10-13T07:30:02.181Z,70.07
2022-10-13T07:32:32.854Z,69.46
2022-10-13T07:35:00.829Z,69.27
2022-10-13T07:37:28.934Z,68.66
2022-10-13T07:39:56.986Z,68.86
2022-10-13T07:42:24.980Z,68.23
2022-10-13T07:44:53.000Z,67.63
2022-10-13T07:47:22.895Z,67.69
2022-10-13T07:49:51.232Z,67.31
2022-10-13T07:52:38.006Z,67.78
2022-10-13T07:55:06.504Z,67.55
2022-10-13T07:57:34.575Z,67.11
2022-10-13T08:00:02.837Z,66.99
2022-10-13T08:02:31.839Z,66.72
2022-10-13T08:04:59.773Z,66.63
2022-10-13T08:07:29.632Z,66.23
2022-10-13T08:09:59.602Z,66.20
2022-10-13T08:12:27.548Z,65.76
2022-10-13T08:14:57.724Z,66.29
2022-10-13T08:17:27.649Z,65.71
2022-10-13T08:19:56.934Z,65.67
2022-10-13T08:22:28.220Z,65.82
2022-10-13T08:24:56.662Z,65.55
2022-10-13T08:27:32.790Z,65.41
2022-10-13T08:30:12.830Z,65.26
2022-10-13T08:32:41.735Z,64.63
2022-10-13T08:37:56.503Z,64.71
2022-10-13T08:40:24.738Z,64.39
2022-10-13T08:42:55.566Z,63.72
2022-10-13T08:45:41.211Z,64.02
2022-10-13T08:48:19.155Z,63.21
2022-10-13T08:50:51.652Z,63.03
2022-10-13T08:53:29.720Z,63.45
2022-10-13T08:56:06.505Z,63.40
2022-10-13T08:58:36.911Z,63.78
2022-10-13T09:01:09.703Z,63.90
2022-10-13T09:04:00.381Z,63.31
2022-10-13T09:06:42.103Z,63.44
2022-10-13T09:09:13.249Z,63.39
2022-10-13T09:11:44.060Z,62.71
2022-10-13T09:14:20.965Z,63.60
2022-10-13T09:16:50.522Z,63.44
2022-10-13T09:19:18.408Z,63.56
2022-10-13T09:21:46.461Z,63.03
2022-10-13T09:24:22.179Z,62.64
2022-10-13T09:27:02.987Z,63.16
2022-10-13T09:29:31.974Z,62.81
2022-10-13T09:36:15.198Z,62.93
2022-10-13T09:39:05.646Z,63.35
2022-10-13T09:41:35.300Z,62.88
2022-10-13T09:44:18.562Z,62.73
2022-10-13T09:46:55.422Z,63.07
2022-10-13T09:49:27.816Z,62.96
2022-10-13T09:52:13.456Z,62.59
2022-10-13T09:54:45.635Z,63.27
2022-10-13T09:57:20.066Z,63.42
2022-10-13T10:00:16.647Z,63.23
2022-10-13T10:02:50.079Z,63.29
2022-10-13T10:05:28.454Z,62.63
2022-10-13T10:08:05.351Z,62.94
2022-10-13T10:10:37.016Z,63.27
2022-10-13T10:13:05.075Z,62.58
2022-10-13T10:16:02.560Z,62.79
2022-10-13T10:18:58.930Z,62.22
2022-10-13T10:21:45.620Z,62.75
2022-10-13T10:24:34.950Z,62.51
2022-10-13T10:27:12.429Z,63.15
2022-10-13T10:29:47.353Z,63.60
2022-10-13T10:32:46.141Z,63.76
2022-10-13T10:35:21.775Z,63.69
2022-10-13T10:37:55.899Z,64.27
2022-10-13T10:40:23.940Z,63.80
2022-10-13T10:43:08.183Z,63.84
2022-10-13T10:45:39.943Z,64.19
2022-10-13T10:48:30.519Z,63.94
2022-10-13T10:50:58.744Z,64.07
2022-10-13T10:53:41.050Z,63.83
2022-10-13T10:56:15.086Z,64.38
2022-10-13T10:59:08.223Z,64.08
2022-10-13T11:01:57.465Z,64.47
2022-10-13T11:04:47.253Z,64.67
2022-10-13T11:07:44.280Z,64.68
2022-10-13T11:10:15.825Z,64.95
2022-10-13T11:12:52.613Z,64.31
2022-10-13T11:15:58.179Z,64.75
2022-10-13T11:18:59.944Z,64.48
2022-10-13T11:21:48.071Z,64.75
2022-10-13T11:24:34.588Z,64.41
2022-10-13T11:27:19.235Z,64.62
2022-10-13T11:29:47.504Z,64.68
2022-10-13T11:32:42.132Z,65.17
2022-10-13T11:35:12.927Z,65.34
2022-10-13T11:38:09.904Z,65.35
2022-10-13T11:41:00.239Z,65.18
2022-10-13T11:43:56.445Z,65.25
2022-10-13T11:46:27.624Z,65.74
2022-10-13T11:48:58.472Z,65.38
2022-10-13T11:51:38.708Z,65.38
2022-10-13T11:54:24.925Z,65.37
2022-10-13T11:56:56.072Z,65.30
2022-10-13T11:59:34.491Z,65.92
2022-10-13T12:02:11.368Z,65.60
2022-10-13T12:04:45.673Z,66.09
2022-10-13T12:07:16.820Z,65.72
2022-10-13T12:09:50.459Z,66.19
2022-10-13T12:12:21.169Z,66.49
2022-10-13T12:14:55.334Z,66.07
2022-10-13T12:17:36.416Z,66.77
2022-10-13T12:20:26.089Z,66.98
2022-10-13T12:22:54.846Z,66.47
2022-10-13T12:25:30.382Z,66.99
2022-10-13T12:28:03.968Z,67.20
2022-10-13T12:30:38.277Z,67.32
2022-10-13T12:33:23.708Z,67.71
2022-10-13T12:35:51.864Z,67.75
2022-10-13T12:38:21.897Z,67.93
2022-10-13T12:40:52.699Z,67.73
2022-10-13T12:43:27.025Z,68.26
2022-10-13T12:45:55.447Z,68.16
2022-10-13T12:48:38.888Z,68.13
2022-10-13T12:51:24.327Z,68.54
2022-10-13T12:53:52.465Z,68.50
2022-10-13T12:56:30.204Z,68.92
2022-10-13T12:59:00.175Z,68.87
2022-10-13T13:01:37.057Z,68.93
2022-10-13T13:04:19.032Z,68.86
2022-10-13T13:07:01.928Z,68.93
2022-10-13T13:09:31.491Z,69.23
2022-10-13T13:12:19.219Z,69.46
2022-10-13T13:14:50.242Z,69.35
2022-10-13T13:17:33.017Z,69.52
2022-10-13T13:20:27.790Z,69.96
2022-10-13T13:22:56.790Z,70.22
2022-10-13T13:25:25.364Z,70.37
2022-10-13T13:27:54.962Z,70.44
2022-10-13T13:30:25.395Z,70.39
2022-10-13T13:32:53.498Z,70.68
2022-10-13T13:35:21.874Z,70.19
2022-10-13T13:37:52.909Z,70.88
2022-10-13T13:40:26.942Z,70.72
2022-10-13T13:42:55.516Z,70.84
2022-10-13T13:45:27.418Z,70.67
2022-10-13T13:48:00.326Z,71.27
2022-10-13T13:50:34.553Z,71.03
2022-10-13T13:53:02.673Z,71.30
2022-10-13T13:55:31.456Z,71.26
2022-10-13T13:57:59.554Z,71.38
2022-10-13T14:00:27.651Z,71.95
2022-10-13T14:02:58.326Z,72.14
2022-10-13T14:05:26.351Z,72.30
2022-10-13T14:07:57.554Z,72.58
2022-10-13T14:10:27.453Z,72.07
2022-10-13T14:12:55.514Z,72.53
2022-10-13T14:15:27.178Z,72.19
2022-10-13T14:17:58.188Z,72.75
2022-10-13T14:20:26.268Z,72.52
2022-10-13T14:22:54.374Z,72.69
2022-10-13T14:25:22.460Z,72.97
2022-10-13T14:27:50.631Z,73.28
2022-10-13T14:30:18.786Z,73.31
2022-10-13T14:32:47.633Z,73.53
2022-10-13T14:35:15.661Z,73.45
2022-10-13T14:37:43.686Z,72.95
2022-10-13T14:40:11.928Z,73.27
2022-10-13T14:42:40.245Z,73.43
2022-10-13T14:45:09.023Z,73.56
2022-10-13T14:47:37.873Z,73.75
2022-10-13T14:50:06.395Z,73.72
2022-10-13T14:52:34.672Z,74.26
2022-10-13T14:55:06.057Z,74.50
2022-10-13T14:57:34.260Z,74.10
2022-10-13T15:00:02.479Z,74.18
2022-10-13T15:02:34.232Z,74.63
2022-10-13T15:05:02.044Z,74.83
2022-10-13T15:07:31.737Z,74.57
2022-10-13T15:10:07.876Z,74.50
2022-10-13T15:12:36.030Z,74.62
2022-10-13T15:15:07.946Z,74.46
2022-10-13T15:17:37.490Z,74.95
2022-10-13T15:20:07.133Z,75.11
2022-10-13T15:22:36.165Z,75.39
2022-10-13T15:25:08.579Z,75.08
2022-10-13T15:27:41.632Z,74.96
2022-10-13T15:30:11.422Z,75.46
2022-10-13T15:32:39.570Z,75.65
2022-10-13T15:35:08.096Z,75.34
2022-10-13T15:37:36.422Z,75.30
2022-10-13T15:40:04.678Z,75.19
2022-10-13T15:42:32.669Z,75.74
2022-10-13T15:45:09.954Z,75.70
2022-10-13T15:47:38.810Z,75.79
2022-10-13T15:50:07.404Z,75.63
2022-10-13T15:52:42.042Z,75.64
2022-10-13T15:55:14.834Z,76.22
2022-10-13T15:57:43.054Z,76.18
2022-10-13T16:00:13.548Z,75.93
2022-10-13T16:02:42.893Z,75.99
2022-10-13T16:05:13.786Z,76.47
2022-10-13T16:07:42.563Z,76.52
2022-10-13T16:10:13.401Z,76.71
2022-10-13T16:12:46.837Z,76.33
2022-10-13T16:15:18.797Z,76.20
2022-10-13T16:17:46.904Z,76.34
2022-10-13T16:20:15.158Z,76.23
2022-10-13T16:22:44.040Z,76.16
2022-10-13T16:25:12.090Z,76.19
2022-10-13T16:27:44.053Z,77.04
2022-10-13T16:30:16.017Z,76.46
2022-10-13T16:32:43.972Z,76.37
2022-10-13T16:35:12.352Z,76.49
2022-10-13T16:37:42.303Z,77.33
2022-10-13T16:40:10.841Z,77.39
2022-10-13T16:42:38.999Z,77.35
2022-10-13T16:45:07.820Z,77.03
2022-10-13T16:47:35.811Z,76.94
2022-10-13T16:50:10.054Z,77.49
2022-10-13T16:52:39.594Z,77.43
2022-10-13T16:55:08.249Z,77.01
2022-10-13T16:57:36.339Z,77.00
2022-10-13T17:00:06.749Z,77.49
2022-10-13T17:02:36.374Z,77.50
2022-10-13T17:05:04.528Z,77.52
2022-10-13T17:07:35.122Z,77.53
2022-10-13T17:11:03.590Z,77.52
2022-10-13T17:13:35.196Z,77.19
2022-10-13T17:16:04.390Z,77.70
2022-10-13T17:18:32.410Z,77.46
2022-10-13T17:21:02.986Z,77.59
2022-10-13T17:23:31.622Z,77.43
2022-10-13T17:26:06.757Z,78.02
2022-10-13T17:28:36.970Z,77.81
2022-10-13T17:31:07.646Z,77.90
2022-10-13T17:33:39.940Z,78.36
2022-10-13T17:36:13.224Z,78.53
2022-10-13T17:38:41.768Z,77.76
2022-10-13T17:41:11.941Z,78.74
2022-10-13T17:43:41.831Z,78.65
2022-10-13T17:46:38.227Z,78.52
2022-10-13T17:49:10.110Z,78.26
2022-10-13T17:51:39.152Z,78.68
2022-10-13T17:54:12.958Z,78.55
2022-10-13T17:56:43.815Z,78.81
2022-10-13T17:59:12.284Z,78.77
2022-10-13T18:01:42.623Z,78.50
2022-10-13T18:04:13.921Z,78.69
2022-10-13T18:06:47.296Z,79.05
2022-10-13T18:09:24.801Z,79.05
2022-10-13T18:11:56.251Z,78.97
2022-10-13T18:14:25.435Z,78.96
2022-10-13T18:16:54.001Z,78.79
2022-10-13T18:19:22.556Z,78.92
2022-10-13T18:21:50.967Z,78.53
2022-10-13T18:24:19.649Z,78.67
2022-10-13T18:26:50.015Z,78.89
2022-10-13T18:29:18.123Z,78.65
2022-10-13T18:31:46.256Z,78.76
2022-10-13T18:34:18.266Z,79.53
2022-10-13T18:36:52.903Z,79.11
2022-10-13T18:39:24.288Z,79.40
2022-10-13T18:41:54.104Z,79.19
2022-10-13T18:44:23.741Z,79.35
2022-10-13T18:46:52.266Z,78.77
2022-10-13T18:49:31.568Z,79.07
2022-10-13T18:52:02.180Z,78.70
2022-10-13T18:54:30.893Z,79.54
2022-10-13T18:57:03.301Z,79.18
2022-10-13T18:59:31.495Z,79.29
2022-10-13T19:02:01.555Z,79.48
2022-10-13T19:04:29.797Z,79.13
2022-10-13T19:06:57.790Z,79.47
2022-10-13T19:09:27.129Z,79.44
2022-10-13T19:11:58.032Z,79.07
2022-10-13T19:14:26.996Z,78.83
2022-10-13T19:16:59.404Z,79.17
2022-10-13T19:19:31.952Z,79.38
2022-10-13T19:21:59.900Z,79.45
2022-10-13T19:24:28.025Z,79.37
2022-10-13T19:26:56.898Z,79.32
2022-10-13T19:29:24.894Z,79.56
2022-10-13T19:31:52.997Z,79.77
2022-10-13T19:34:21.243Z,79.64
2022-10-13T19:36:49.796Z,79.33
2022-10-13T19:39:27.631Z,79.66
2022-10-13T19:41:57.467Z,79.54
2022-10-13T19:44:25.992Z,79.61
2022-10-13T19:46:57.040Z,79.64
2022-10-13T19:49:28.137Z,79.83
2022-10-13T19:51:56.892Z,79.52
2022-10-13T19:54:30.186Z,80.02
2022-10-13T19:57:01.202Z,79.84
2022-10-13T19:59:29.573Z,79.56
2022-10-13T20:01:58.324Z,80.14
2022-10-13T20:04:26.972Z,80.25
2022-10-13T20:06:55.199Z,79.77
2022-10-13T20:09:26.109Z,79.57
2022-10-13T20:11:54.260Z,79.74
2022-10-13T20:14:22.750Z,79.69
2022-10-13T20:16:52.577Z,79.86
2022-10-13T20:19:20.762Z,79.93
2022-10-13T20:21:52.097Z,79.59
2022-10-13T20:24:25.390Z,79.89
2022-10-13T20:26:53.551Z,80.26
2022-10-13T20:29:21.607Z,79.72
2022-10-13T20:31:49.778Z,79.82
2022-10-13T20:34:17.905Z,80.15
2022-10-13T20:36:45.872Z,80.28
2022-10-13T20:39:14.805Z,80.00
2022-10-13T20:41:42.916Z,79.84
2022-10-13T20:44:11.674Z,80.05
2022-10-13T20:46:40.102Z,79.85
2022-10-13T20:49:12.571Z,80.09
2022-10-13T20:51:42.519Z,79.88
2022-10-13T20:54:12.271Z,80.13
2022-10-13T20:56:39.936Z,80.37
2022-10-13T20:59:11.146Z,80.04
2022-10-13T21:01:42.145Z,80.56
2022-10-13T21:04:10.179Z,80.53
2022-10-13T21:06:38.813Z,80.60
2022-10-13T21:09:08.192Z,80.21
2022-10-13T21:11:36.769Z,80.87
2022-10-13T21:14:07.447Z,80.67
2022-10-13T21:16:36.515Z,80.97
2022-10-13T21:19:05.507Z,80.33
2022-10-13T21:21:36.414Z,80.64
2022-10-13T21:24:07.027Z,80.50
2022-10-13T21:26:36.517Z,80.99
2022-10-13T21:29:04.934Z,80.94
2022-10-13T21:31:33.048Z,80.34
2022-10-13T21:34:01.720Z,81.09
2022-10-13T21:36:32.073Z,80.46
2022-10-13T21:39:05.365Z,80.98
2022-10-13T21:41:33.478Z,80.54
2022-10-13T21:44:01.491Z,80.83
2022-10-13T21:46:32.880Z,80.68
2022-10-13T21:49:04.421Z,81.02
2022-10-13T21:51:36.558Z,80.86
2022-10-13T21:54:10.375Z,81.14
2022-10-13T21:56:40.157Z,81.24
2022-10-13T21:59:12.114Z,80.81
2022-10-13T22:01:40.368Z,81.01
2022-10-13T22:04:08.555Z,81.11
2022-10-13T22:06:36.779Z,81.42
2022-10-13T22:09:06.391Z,80.90
2022-10-13T22:11:35.124Z,80.80
2022-10-13T22:14:03.202Z,80.91
2022-10-13T22:16:34.992Z,80.93
2022-10-13T22:19:02.938Z,80.75
2022-10-13T22:21:34.738Z,81.19
2022-10-13T22:24:06.089Z,80.94
2022-10-13T22:26:37.479Z,81.29
2022-10-13T22:29:07.139Z,81.42
2022-10-13T22:31:35.462Z,81.53
2022-10-13T22:34:03.964Z,80.56
2022-10-13T22:36:32.427Z,80.73
2022-10-13T22:39:03.326Z,81.05
2022-10-13T22:41:33.553Z,81.12
2022-10-13T22:44:02.772Z,80.95
2022-10-13T22:46:35.267Z,81.84
2022-10-13T22:49:04.257Z,81.16
2022-10-13T22:51:34.650Z,81.28
2022-10-13T22:54:03.576Z,81.29
2022-10-13T22:56:34.012Z,81.60
2022-10-13T22:59:07.637Z,81.43
2022-10-13T23:01:36.387Z,81.35
2022-10-13T23:04:06.065Z,81.76
2022-10-13T23:06:36.880Z,81.59
2022-10-13T23:09:07.763Z,81.81
2022-10-13T23:12:00.630Z,81.11
2022-10-13T23:14:28.758Z,81.82
2022-10-13T23:16:56.770Z,81.58
2022-10-13T23:19:26.250Z,81.74
2022-10-13T23:21:54.105Z,82.08
2022-10-13T23:24:22.253Z,82.10
2022-10-13T23:26:50.389Z,81.94
2022-10-13T23:29:18.324Z,81.97
2022-10-13T23:31:46.340Z,81.53
2022-10-13T23:34:14.467Z,81.97
2022-10-13T23:36:42.439Z,81.70
2022-10-13T23:39:11.525Z,81.47
2022-10-13T23:41:40.616Z,81.67
2022-10-13T23:44:09.073Z,81.59
2022-10-13T23:46:37.204Z,82.07
2022-10-13T23:49:05.296Z,81.69
2022-10-13T23:51:33.338Z,81.71
2022-10-13T23:54:01.515Z,82.45
2022-10-13T23:56:30.802Z,82.19
2022-10-13T23:58:58.903Z,82.23
